createdAt,value
2018-12-10T00:00:58.669Z,4.16
2018-12-10T00:02:06.718Z,4.23
2018-12-10T00:03:14.789Z,4.23
2018-12-10T00:04:22.840Z,4.16
2018-12-10T00:05:30.890Z,4.26
2018-12-10T00:06:38.947Z,4.29
2018-12-10T00:07:47.022Z,4.30
2018-12-10T00:08:55.074Z,4.18
2018-12-10T00:10:03.126Z,4.20
2018-12-10T00:11:11.170Z,4.29
2018-12-10T00:12:19.266Z,4.26
2018-12-10T00:13:27.301Z,4.24
2018-12-10T00:14:35.375Z,4.30
2018-12-10T00:15:43.420Z,4.20
2018-12-10T00:16:51.475Z,4.22
2018-12-10T00:17:59.532Z,4.16
2018-12-10T00:19:07.574Z,4.26
2018-12-10T00:20:15.639Z,4.32
2018-12-10T00:21:23.697Z,4.16
2018-12-10T00:22:31.773Z,4.15
2018-12-10T00:23:39.815Z,4.24
2018-12-10T00:24:47.880Z,4.20
2018-12-10T00:25:55.930Z,4.09
2018-12-10T00:27:03.984Z,4.14
2018-12-10T00:28:12.059Z,4.16
2018-12-10T00:29:20.118Z,4.15
2018-12-10T00:30:28.175Z,4.05
2018-12-10T00:31:36.216Z,4.00
2018-12-10T00:32:44.314Z,4.04
2018-12-10T00:33:52.352Z,3.87
2018-12-10T00:35:00.402Z,3.98
2018-12-10T00:36:08.460Z,3.90
2018-12-10T00:37:16.537Z,3.87
2018-12-10T00:38:24.619Z,3.84
2018-12-10T00:39:32.633Z,3.87
2018-12-10T00:40:40.695Z,3.83
2018-12-10T00:41:48.753Z,3.87
2018-12-10T00:42:56.820Z,3.90
2018-12-10T00:44:04.854Z,3.96
2018-12-10T00:45:12.906Z,3.93
2018-12-10T00:46:22.578Z,3.90
2018-12-10T00:47:29.040Z,3.88
2018-12-10T00:48:37.105Z,3.93
2018-12-10T00:49:45.123Z,3.86
2018-12-10T00:50:53.249Z,3.93
2018-12-10T00:52:01.270Z,3.94
2018-12-10T00:53:09.321Z,3.93
2018-12-10T00:54:17.386Z,3.87
2018-12-10T00:55:25.428Z,3.88
2018-12-10T00:56:33.491Z,3.88
2018-12-10T00:57:41.563Z,3.91
2018-12-10T00:58:49.612Z,3.84
2018-12-10T00:59:57.673Z,3.90
2018-12-10T01:01:05.719Z,3.88
2018-12-10T01:02:13.790Z,3.91
2018-12-10T01:03:21.842Z,3.86
2018-12-10T01:04:29.938Z,3.84
2018-12-10T01:05:37.970Z,3.87
2018-12-10T01:06:46.009Z,3.80
2018-12-10T01:07:54.181Z,3.87
2018-12-10T01:09:02.228Z,3.90
2018-12-10T01:10:10.201Z,3.88
2018-12-10T01:11:18.252Z,3.94
2018-12-10T01:12:26.310Z,3.93
2018-12-10T01:13:34.378Z,3.91
2018-12-10T01:14:42.421Z,3.93
2018-12-10T01:15:50.511Z,3.98
2018-12-10T01:16:58.533Z,3.94
2018-12-10T01:18:06.610Z,4.09
2018-12-10T01:19:14.669Z,4.05
2018-12-10T01:20:22.713Z,4.11
2018-12-10T01:21:30.773Z,3.98
2018-12-10T01:22:38.831Z,4.08
2018-12-10T01:23:46.890Z,4.02
2018-12-10T01:24:54.939Z,3.93
2018-12-10T01:26:02.995Z,3.93
2018-12-10T01:27:11.062Z,3.98
2018-12-10T01:28:19.123Z,3.87
2018-12-10T01:29:27.203Z,3.88
2018-12-10T01:30:35.261Z,3.88
2018-12-10T01:31:43.287Z,3.96
2018-12-10T01:32:51.345Z,3.88
2018-12-10T01:33:59.425Z,3.88
2018-12-10T01:35:07.500Z,3.98
2018-12-10T01:36:15.524Z,3.83
2018-12-10T01:37:23.579Z,3.87
2018-12-10T01:38:31.652Z,3.83
2018-12-10T01:39:39.711Z,3.88
2018-12-10T01:40:47.744Z,3.93
2018-12-10T01:41:55.797Z,3.76
2018-12-10T01:43:03.857Z,3.80
2018-12-10T01:44:11.938Z,3.72
2018-12-10T01:45:20.006Z,3.75
2018-12-10T01:46:28.031Z,3.72
2018-12-10T01:47:36.093Z,3.75
2018-12-10T01:48:44.178Z,3.65
2018-12-10T01:49:52.222Z,3.70
2018-12-10T01:51:00.295Z,3.66
2018-12-10T01:52:08.316Z,3.62
2018-12-10T01:53:16.411Z,3.65
2018-12-10T01:54:24.481Z,3.75
2018-12-10T01:55:32.516Z,3.70
2018-12-10T01:56:40.560Z,3.66
2018-12-10T01:57:48.627Z,3.69
2018-12-10T01:58:56.670Z,3.72
2018-12-10T02:00:04.729Z,3.65
2018-12-10T02:01:12.779Z,3.68
2018-12-10T02:02:20.856Z,3.66
2018-12-10T02:03:28.905Z,3.55
2018-12-10T02:04:36.977Z,3.65
2018-12-10T02:05:45.026Z,3.62
2018-12-10T02:06:53.089Z,3.52
2018-12-10T02:08:01.143Z,3.54
2018-12-10T02:09:09.229Z,3.48
2018-12-10T02:10:17.238Z,3.60
2018-12-10T02:11:25.284Z,3.52
2018-12-10T02:12:33.368Z,3.60
2018-12-10T02:13:41.419Z,3.47
2018-12-10T02:14:49.496Z,3.55
2018-12-10T02:15:57.540Z,3.58
2018-12-10T02:17:05.599Z,3.55
2018-12-10T02:18:13.662Z,3.54
2018-12-10T02:19:21.722Z,3.54
2018-12-10T02:20:29.765Z,3.50
2018-12-10T02:21:37.820Z,3.54
2018-12-10T02:22:45.894Z,3.47
2018-12-10T02:23:53.952Z,3.48
2018-12-10T02:25:01.999Z,3.57
2018-12-10T02:26:10.057Z,3.55
2018-12-10T02:27:18.126Z,3.48
2018-12-10T02:28:26.183Z,3.60
2018-12-10T02:29:34.231Z,3.52
2018-12-10T02:30:42.283Z,3.60
2018-12-10T02:31:50.352Z,3.58
2018-12-10T02:32:58.392Z,3.58
2018-12-10T02:34:06.472Z,3.48
2018-12-10T02:35:14.543Z,3.58
2018-12-10T02:36:22.590Z,3.55
2018-12-10T02:37:30.633Z,3.57
2018-12-10T02:38:38.711Z,3.58
2018-12-10T02:39:46.744Z,3.57
2018-12-10T02:40:54.818Z,3.55
2018-12-10T02:42:02.860Z,3.52
2018-12-10T02:43:10.949Z,3.55
2018-12-10T02:44:18.967Z,3.61
2018-12-10T02:45:27.087Z,3.62
2018-12-10T02:46:35.095Z,3.65
2018-12-10T02:47:43.137Z,3.55
2018-12-10T02:48:51.219Z,3.65
2018-12-10T02:49:59.243Z,3.58
2018-12-10T02:51:07.307Z,3.54
2018-12-10T02:52:15.371Z,3.61
2018-12-10T02:53:23.439Z,3.54
2018-12-10T02:54:31.486Z,3.54
2018-12-10T02:55:39.558Z,3.73
2018-12-10T02:56:47.649Z,3.60
2018-12-10T02:57:55.653Z,3.55
2018-12-10T02:59:03.732Z,3.60
2018-12-10T03:00:11.803Z,3.62
2018-12-10T03:01:19.840Z,3.65
2018-12-10T03:02:27.917Z,3.66
2018-12-10T03:03:35.972Z,3.65
2018-12-10T03:04:44.026Z,3.60
2018-12-10T03:05:52.089Z,3.62
2018-12-10T03:07:00.139Z,3.66
2018-12-10T03:08:08.195Z,3.62
2018-12-10T03:09:16.254Z,3.62
2018-12-10T03:10:24.309Z,3.73
2018-12-10T03:11:32.375Z,3.62
2018-12-10T03:12:40.449Z,3.73
2018-12-10T03:13:48.506Z,3.68
2018-12-10T03:14:56.541Z,3.66
2018-12-10T03:16:04.596Z,3.58
2018-12-10T03:17:12.721Z,3.72
2018-12-10T03:18:20.709Z,3.66
2018-12-10T03:19:28.759Z,3.55
2018-12-10T03:20:36.827Z,3.66
2018-12-10T03:21:44.877Z,3.61
2018-12-10T03:22:52.961Z,3.62
2018-12-10T03:24:01.000Z,3.62
2018-12-10T03:25:09.059Z,3.62
2018-12-10T03:26:17.125Z,3.60
2018-12-10T03:27:25.168Z,3.60
2018-12-10T03:28:33.239Z,3.58
2018-12-10T03:29:41.285Z,3.60
2018-12-10T03:30:49.364Z,3.51
2018-12-10T03:31:57.438Z,3.60
2018-12-10T03:33:05.472Z,3.60
2018-12-10T03:34:13.543Z,3.57
2018-12-10T03:35:21.564Z,3.61
2018-12-10T03:36:29.637Z,3.60
2018-12-10T03:37:37.709Z,3.70
2018-12-10T03:38:45.771Z,3.54
2018-12-10T03:39:53.814Z,3.61
2018-12-10T03:41:01.860Z,3.60
2018-12-10T03:42:09.925Z,3.58
2018-12-10T03:43:17.967Z,3.48
2018-12-10T03:44:26.030Z,3.48
2018-12-10T03:45:34.101Z,3.43
2018-12-10T03:46:42.129Z,3.45
2018-12-10T03:47:50.238Z,3.39
2018-12-10T03:48:58.294Z,3.36
2018-12-10T03:50:06.331Z,3.31
2018-12-10T03:51:14.389Z,3.29
2018-12-10T03:52:22.453Z,3.32
2018-12-10T03:53:30.503Z,3.31
2018-12-10T03:54:38.573Z,3.13
2018-12-10T03:55:46.618Z,3.24
2018-12-10T03:56:54.690Z,3.14
2018-12-10T03:58:02.739Z,3.20
2018-12-10T03:59:10.782Z,3.23
2018-12-10T04:00:18.830Z,3.13
2018-12-10T04:01:26.928Z,3.11
2018-12-10T04:02:34.954Z,3.17
2018-12-10T04:03:43.030Z,3.15
2018-12-10T04:04:51.088Z,3.18
2018-12-10T04:05:59.146Z,3.14
2018-12-10T04:07:07.224Z,3.28
2018-12-10T04:08:15.242Z,3.17
2018-12-10T04:09:23.315Z,3.20
2018-12-10T04:10:31.404Z,3.13
2018-12-10T04:11:39.422Z,3.26
2018-12-10T04:12:47.502Z,3.24
2018-12-10T04:13:55.515Z,3.28
2018-12-10T04:15:03.599Z,3.28
2018-12-10T04:16:11.665Z,3.31
2018-12-10T04:17:19.716Z,3.29
2018-12-10T04:18:27.766Z,3.26
2018-12-10T04:19:35.841Z,3.33
2018-12-10T04:20:43.883Z,3.23
2018-12-10T04:21:51.961Z,3.33
2018-12-10T04:23:00.002Z,3.28
2018-12-10T04:24:08.061Z,3.26
2018-12-10T04:25:16.131Z,3.35
2018-12-10T04:26:24.178Z,3.35
2018-12-10T04:27:32.233Z,3.31
2018-12-10T04:28:40.303Z,3.33
2018-12-10T04:29:48.367Z,3.35
2018-12-10T04:30:56.422Z,3.28
2018-12-10T04:32:04.494Z,3.24
2018-12-10T04:33:12.515Z,3.29
2018-12-10T04:34:20.576Z,3.29
2018-12-10T04:35:28.648Z,3.26
2018-12-10T04:36:36.707Z,3.21
2018-12-10T04:37:44.759Z,3.21
2018-12-10T04:38:52.819Z,3.15
2018-12-10T04:40:00.857Z,3.14
2018-12-10T04:41:08.938Z,3.13
2018-12-10T04:42:16.969Z,3.14
2018-12-10T04:43:25.036Z,3.21
2018-12-10T04:44:33.121Z,3.15
2018-12-10T04:45:41.141Z,3.23
2018-12-10T04:46:49.218Z,3.21
2018-12-10T04:47:57.265Z,3.21
2018-12-10T04:49:05.303Z,3.20
2018-12-10T04:50:13.442Z,3.31
2018-12-10T04:51:21.476Z,3.17
2018-12-10T04:52:29.528Z,3.26
2018-12-10T04:53:37.549Z,3.17
2018-12-10T04:54:45.622Z,3.18
2018-12-10T04:55:53.692Z,3.29
2018-12-10T04:57:01.731Z,3.24
2018-12-10T04:58:09.792Z,3.28
2018-12-10T04:59:17.848Z,3.32
2018-12-10T05:00:25.892Z,3.35
2018-12-10T05:01:33.965Z,3.33
2018-12-10T05:02:42.023Z,3.39
2018-12-10T05:03:50.077Z,3.36
2018-12-10T05:04:58.131Z,3.40
2018-12-10T05:06:06.192Z,3.43
2018-12-10T05:07:14.233Z,3.48
2018-12-10T05:08:22.308Z,3.50
2018-12-10T05:09:30.400Z,3.51
2018-12-10T05:10:38.430Z,3.51
2018-12-10T05:11:46.479Z,3.51
2018-12-10T05:12:54.563Z,3.43
2018-12-10T05:14:02.598Z,3.40
2018-12-10T05:15:10.663Z,3.52
2018-12-10T05:16:18.738Z,3.55
2018-12-10T05:17:26.775Z,3.52
2018-12-10T05:18:34.828Z,3.48
2018-12-10T05:19:42.870Z,3.54
2018-12-10T05:20:50.942Z,3.55
2018-12-10T05:21:58.996Z,3.51
2018-12-10T05:23:07.081Z,3.54
2018-12-10T05:24:15.093Z,3.51
2018-12-10T05:25:23.183Z,3.52
2018-12-10T05:26:31.223Z,3.50
2018-12-10T05:27:39.315Z,3.48
2018-12-10T05:28:47.359Z,3.52
2018-12-10T05:29:55.580Z,3.54
2018-12-10T05:31:03.541Z,3.52
2018-12-10T05:32:11.531Z,3.54
2018-12-10T05:33:19.575Z,3.51
2018-12-10T05:34:27.632Z,3.50
2018-12-10T05:35:37.117Z,3.42
2018-12-10T05:36:43.759Z,3.50
2018-12-10T05:37:51.853Z,3.47
2018-12-10T05:38:59.856Z,3.52
2018-12-10T05:40:07.979Z,3.47
2018-12-10T05:41:15.976Z,3.60
2018-12-10T05:42:24.016Z,3.60
2018-12-10T05:43:32.111Z,3.60
2018-12-10T05:44:40.149Z,3.61
2018-12-10T05:45:48.215Z,3.61
2018-12-10T05:46:56.286Z,3.60
2018-12-10T05:48:04.324Z,3.60
2018-12-10T05:49:12.387Z,3.55
2018-12-10T05:50:20.455Z,3.50
2018-12-10T05:51:28.508Z,3.47
2018-12-10T05:52:36.563Z,3.54
2018-12-10T05:53:44.625Z,3.42
2018-12-10T05:54:52.700Z,3.35
2018-12-10T05:56:00.745Z,3.35
2018-12-10T05:57:08.800Z,3.33
2018-12-10T05:58:17.756Z,3.31
2018-12-10T05:59:25.028Z,3.31
2018-12-10T06:00:32.951Z,3.31
2018-12-10T06:01:41.027Z,3.26
2018-12-10T06:02:49.192Z,3.24
2018-12-10T06:03:57.136Z,3.24
2018-12-10T06:05:05.206Z,3.11
2018-12-10T06:06:13.260Z,3.18
2018-12-10T06:07:21.321Z,3.20
2018-12-10T06:08:29.739Z,3.14
2018-12-10T06:09:37.430Z,3.14
2018-12-10T06:10:45.486Z,3.14
2018-12-10T06:11:53.548Z,3.17
2018-12-10T06:13:01.598Z,3.15
2018-12-10T06:14:09.696Z,3.08
2018-12-10T06:15:17.796Z,3.05
2018-12-10T06:16:25.744Z,3.06
2018-12-10T06:17:33.842Z,2.92
2018-12-10T06:18:41.914Z,2.95
2018-12-10T06:19:49.950Z,2.90
2018-12-10T06:20:58.007Z,2.97
2018-12-10T06:22:06.033Z,2.92
2018-12-10T06:23:14.121Z,2.89
2018-12-10T06:24:22.201Z,2.85
2018-12-10T06:25:30.242Z,2.85
2018-12-10T06:26:38.289Z,2.82
2018-12-10T06:27:46.350Z,2.78
2018-12-10T06:28:54.412Z,2.81
2018-12-10T06:30:02.469Z,2.66
2018-12-10T06:31:10.537Z,2.61
2018-12-10T06:32:18.600Z,2.45
2018-12-10T06:33:26.632Z,2.52
2018-12-10T06:34:34.691Z,2.52
2018-12-10T06:35:42.747Z,2.38
2018-12-10T06:36:50.809Z,2.35
2018-12-10T06:37:58.863Z,2.39
2018-12-10T06:39:06.923Z,2.36
2018-12-10T06:40:14.981Z,2.24
2018-12-10T06:41:23.047Z,2.25
2018-12-10T06:42:31.102Z,2.17
2018-12-10T06:43:39.152Z,2.25
2018-12-10T06:44:47.217Z,2.10
2018-12-10T06:45:55.260Z,2.07
2018-12-10T06:47:03.333Z,2.03
2018-12-10T06:48:11.379Z,1.99
2018-12-10T06:49:19.436Z,2.03
2018-12-10T06:50:27.502Z,2.05
2018-12-10T06:51:35.570Z,2.03
2018-12-10T06:52:43.606Z,1.88
2018-12-10T06:53:51.656Z,1.99
2018-12-10T06:55:01.517Z,1.93
2018-12-10T06:56:07.783Z,1.84
2018-12-10T06:57:15.843Z,1.88
2018-12-10T06:58:23.885Z,1.83
2018-12-10T06:59:31.963Z,1.86
2018-12-10T07:00:39.986Z,1.84
2018-12-10T07:01:48.071Z,1.81
2018-12-10T07:02:56.112Z,1.76
2018-12-10T07:04:04.164Z,1.73
2018-12-10T07:05:12.255Z,1.69
2018-12-10T07:06:20.290Z,1.62
2018-12-10T07:07:28.398Z,1.62
2018-12-10T07:08:36.415Z,1.62
2018-12-10T07:09:44.453Z,1.60
2018-12-10T07:10:52.524Z,1.60
2018-12-10T07:12:00.556Z,1.58
2018-12-10T07:13:08.643Z,1.52
2018-12-10T07:14:16.687Z,1.50
2018-12-10T07:15:24.749Z,1.54
2018-12-10T07:16:32.817Z,1.51
2018-12-10T07:17:40.865Z,1.59
2018-12-10T07:18:48.911Z,1.54
2018-12-10T07:19:56.946Z,1.48
2018-12-10T07:21:05.036Z,1.58
2018-12-10T07:22:13.084Z,1.59
2018-12-10T07:23:21.152Z,1.48
2018-12-10T07:24:29.201Z,1.45
2018-12-10T07:25:37.243Z,1.47
2018-12-10T07:26:45.295Z,1.47
2018-12-10T07:27:53.352Z,1.59
2018-12-10T07:29:01.430Z,1.63
2018-12-10T07:30:09.503Z,1.65
2018-12-10T07:31:17.551Z,1.72
2018-12-10T07:32:25.574Z,1.72
2018-12-10T07:33:33.643Z,1.72
2018-12-10T07:34:41.703Z,1.66
2018-12-10T07:35:49.771Z,1.81
2018-12-10T07:36:57.827Z,1.79
2018-12-10T07:38:05.892Z,1.79
2018-12-10T07:39:13.932Z,1.80
2018-12-10T07:40:21.992Z,1.84
2018-12-10T07:41:30.061Z,1.93
2018-12-10T07:42:38.103Z,1.95
2018-12-10T07:43:46.150Z,1.84
2018-12-10T07:44:54.216Z,1.91
2018-12-10T07:46:02.282Z,1.86
2018-12-10T07:47:10.318Z,1.87
2018-12-10T07:48:18.377Z,2.06
2018-12-10T07:49:26.430Z,1.98
2018-12-10T07:50:34.499Z,1.93
2018-12-10T07:51:42.558Z,1.99
2018-12-10T07:52:50.619Z,2.03
2018-12-10T07:53:58.674Z,2.00
2018-12-10T07:55:06.733Z,1.88
2018-12-10T07:56:14.781Z,1.98
2018-12-10T07:57:22.838Z,2.06
2018-12-10T07:58:30.911Z,2.18
2018-12-10T07:59:38.957Z,2.25
2018-12-10T08:00:47.017Z,2.27
2018-12-10T08:01:55.065Z,2.30
2018-12-10T08:03:03.138Z,2.35
2018-12-10T08:04:11.177Z,2.52
2018-12-10T08:05:19.239Z,2.54
2018-12-10T08:06:27.305Z,2.75
2018-12-10T08:07:35.340Z,2.71
2018-12-10T08:08:43.409Z,2.79
2018-12-10T08:09:51.460Z,2.90
2018-12-10T08:10:59.522Z,2.96
2018-12-10T08:12:07.575Z,3.11
2018-12-10T08:13:15.646Z,3.06
2018-12-10T08:14:23.687Z,3.20
2018-12-10T08:15:31.786Z,3.15
2018-12-10T08:16:39.819Z,3.24
2018-12-10T08:17:47.869Z,3.35
2018-12-10T08:18:55.903Z,3.35
2018-12-10T08:20:03.993Z,3.39
2018-12-10T08:21:12.035Z,3.51
2018-12-10T08:22:20.100Z,3.50
2018-12-10T08:23:28.160Z,3.45
2018-12-10T08:24:36.203Z,3.61
2018-12-10T08:25:44.288Z,3.61
2018-12-10T08:26:52.329Z,3.60
2018-12-10T08:28:00.413Z,3.70
2018-12-10T08:29:08.471Z,3.78
2018-12-10T08:30:16.518Z,3.79
2018-12-10T08:31:24.561Z,3.83
2018-12-10T08:32:32.617Z,3.93
2018-12-10T08:33:40.671Z,3.90
2018-12-10T08:34:48.749Z,3.90
2018-12-10T08:35:56.806Z,3.88
2018-12-10T08:37:04.845Z,3.96
2018-12-10T08:38:12.904Z,3.90
2018-12-10T08:39:20.951Z,3.93
2018-12-10T08:40:29.028Z,3.91
2018-12-10T08:41:37.090Z,3.87
2018-12-10T08:42:45.121Z,3.78
2018-12-10T08:43:53.211Z,3.76
2018-12-10T08:45:01.227Z,3.78
2018-12-10T08:46:09.342Z,3.65
2018-12-10T08:47:17.365Z,3.65
2018-12-10T08:48:25.424Z,3.52
2018-12-10T08:49:33.532Z,3.51
2018-12-10T08:50:41.543Z,3.48
2018-12-10T08:51:49.608Z,3.45
2018-12-10T08:52:57.669Z,3.36
2018-12-10T08:54:05.696Z,3.33
2018-12-10T08:55:13.788Z,3.26
2018-12-10T08:56:21.832Z,3.33
2018-12-10T08:57:29.889Z,3.33
2018-12-10T08:58:37.959Z,3.33
2018-12-10T08:59:46.016Z,3.33
2018-12-10T09:00:54.058Z,3.51
2018-12-10T09:02:02.142Z,3.47
2018-12-10T09:03:10.189Z,3.55
2018-12-10T09:04:18.237Z,3.61
2018-12-10T09:05:26.307Z,3.70
2018-12-10T09:06:34.360Z,3.65
2018-12-10T09:07:42.416Z,3.66
2018-12-10T09:08:50.484Z,3.65
2018-12-10T09:09:58.551Z,3.75
2018-12-10T09:11:06.591Z,3.72
2018-12-10T09:12:14.659Z,3.73
2018-12-10T09:13:22.699Z,3.80
2018-12-10T09:14:30.758Z,3.88
2018-12-10T09:15:38.850Z,3.96
2018-12-10T09:16:47.062Z,3.93
2018-12-10T09:17:54.939Z,3.98
2018-12-10T09:19:02.995Z,3.96
2018-12-10T09:20:11.046Z,4.09
2018-12-10T09:21:19.106Z,4.14
2018-12-10T09:22:27.158Z,4.06
2018-12-10T09:23:35.207Z,4.11
2018-12-10T09:24:43.285Z,4.26
2018-12-10T09:25:51.371Z,4.30
2018-12-10T09:26:59.392Z,4.30
2018-12-10T09:28:07.469Z,4.44
2018-12-10T09:29:15.520Z,4.59
2018-12-10T09:30:23.621Z,4.70
2018-12-10T09:31:31.641Z,4.73
2018-12-10T09:32:39.704Z,4.80
2018-12-10T09:33:47.736Z,4.78
2018-12-10T09:34:55.800Z,4.85
2018-12-10T09:36:03.864Z,4.85
2018-12-10T09:37:11.938Z,4.84
2018-12-10T09:38:19.982Z,4.85
2018-12-10T09:39:30.019Z,4.92
2018-12-10T09:40:36.112Z,4.96
2018-12-10T09:41:44.154Z,5.07
2018-12-10T09:42:52.209Z,5.07
2018-12-10T09:44:00.272Z,5.04
2018-12-10T09:45:08.338Z,5.03
2018-12-10T09:46:16.405Z,5.13
2018-12-10T09:47:24.455Z,5.17
2018-12-10T09:48:32.520Z,5.27
2018-12-10T09:49:40.585Z,5.20
2018-12-10T09:50:48.626Z,5.30
2018-12-10T09:51:56.706Z,5.24
2018-12-10T09:53:04.742Z,5.27
2018-12-10T09:54:12.813Z,5.17
2018-12-10T09:55:20.861Z,5.18
2018-12-10T09:56:28.955Z,5.18
2018-12-10T09:57:36.989Z,5.17
2018-12-10T09:58:45.024Z,5.17
2018-12-10T09:59:53.106Z,5.22
2018-12-10T10:01:01.180Z,5.21
2018-12-10T10:02:12.331Z,5.21
2018-12-10T10:03:17.304Z,5.20
2018-12-10T10:04:25.384Z,5.12
2018-12-10T10:05:33.422Z,5.13
2018-12-10T10:06:41.468Z,5.09
2018-12-10T10:07:49.523Z,4.97
2018-12-10T10:08:57.607Z,4.89
2018-12-10T10:10:05.649Z,4.86
2018-12-10T10:11:13.712Z,4.72
2018-12-10T10:12:23.610Z,4.41
2018-12-10T10:13:29.827Z,4.30
2018-12-10T10:14:37.892Z,4.20
2018-12-10T10:15:45.950Z,4.06
2018-12-10T10:16:53.994Z,4.08
2018-12-10T10:18:02.108Z,4.00
2018-12-10T10:19:10.121Z,3.94
2018-12-10T10:20:18.190Z,3.98
2018-12-10T10:21:26.260Z,3.87
2018-12-10T10:22:34.317Z,3.88
2018-12-10T10:23:42.342Z,3.79
2018-12-10T10:24:50.440Z,3.94
2018-12-10T10:25:58.499Z,3.93
2018-12-10T10:27:06.542Z,3.91
2018-12-10T10:28:14.575Z,3.88
2018-12-10T10:29:22.669Z,3.88
2018-12-10T10:30:30.714Z,3.88
2018-12-10T10:31:38.780Z,3.87
2018-12-10T10:32:47.033Z,3.78
2018-12-10T10:33:54.885Z,3.72
2018-12-10T10:35:02.923Z,3.70
2018-12-10T10:36:11.018Z,3.65
2018-12-10T10:37:19.064Z,3.58
2018-12-10T10:38:27.138Z,3.51
2018-12-10T10:39:35.161Z,3.52
2018-12-10T10:40:43.250Z,3.54
2018-12-10T10:41:51.315Z,3.61
2018-12-10T10:42:59.355Z,3.58
2018-12-10T10:44:07.409Z,3.62
2018-12-10T10:45:15.451Z,3.80
2018-12-10T10:46:23.526Z,3.78
2018-12-10T10:47:31.594Z,3.76
2018-12-10T10:48:39.641Z,3.79
2018-12-10T10:49:47.713Z,3.88
2018-12-10T10:50:55.795Z,3.80
2018-12-10T10:52:03.809Z,3.78
2018-12-10T10:53:11.884Z,3.87
2018-12-10T10:54:19.925Z,3.78
2018-12-10T10:55:28.005Z,3.86
2018-12-10T10:56:36.073Z,3.84
2018-12-10T10:57:44.139Z,3.93
2018-12-10T10:58:52.172Z,3.90
2018-12-10T11:00:00.226Z,3.91
2018-12-10T11:01:08.287Z,3.91
2018-12-10T11:02:16.338Z,4.02
2018-12-10T11:03:24.399Z,4.05
2018-12-10T11:04:37.471Z,4.14
2018-12-10T11:05:40.510Z,4.06
2018-12-10T11:06:48.611Z,4.15
2018-12-10T11:07:56.627Z,4.14
2018-12-10T11:09:04.667Z,4.23
2018-12-10T11:10:12.736Z,4.20
2018-12-10T11:11:20.801Z,4.29
2018-12-10T11:12:28.861Z,4.33
2018-12-10T11:13:36.920Z,4.41
2018-12-10T11:14:44.961Z,4.48
2018-12-10T11:15:53.035Z,4.62
2018-12-10T11:17:01.097Z,4.54
2018-12-10T11:18:09.153Z,4.58
2018-12-10T11:19:17.212Z,4.54
2018-12-10T11:20:25.331Z,4.51
2018-12-10T11:21:33.323Z,4.59
2018-12-10T11:22:41.391Z,4.51
2018-12-10T11:23:49.442Z,4.67
2018-12-10T11:24:57.499Z,4.73
2018-12-10T11:26:05.551Z,4.63
2018-12-10T11:27:13.616Z,4.82
2018-12-10T11:28:21.702Z,4.66
2018-12-10T11:29:29.742Z,4.70
2018-12-10T11:30:37.803Z,4.73
2018-12-10T11:31:45.853Z,4.73
2018-12-10T11:32:53.913Z,4.70
2018-12-10T11:34:01.958Z,4.67
2018-12-10T11:35:10.035Z,4.70
2018-12-10T11:36:18.101Z,4.69
2018-12-10T11:37:26.160Z,4.72
2018-12-10T11:38:34.204Z,4.78
2018-12-10T11:39:42.259Z,4.73
2018-12-10T11:40:50.318Z,4.58
2018-12-10T11:41:58.397Z,4.70
2018-12-10T11:43:06.459Z,4.63
2018-12-10T11:44:14.487Z,4.63
2018-12-10T11:45:22.562Z,4.45
2018-12-10T11:46:30.610Z,4.62
2018-12-10T11:47:38.676Z,4.59
2018-12-10T11:48:46.742Z,4.50
2018-12-10T11:49:54.786Z,4.50
2018-12-10T11:51:02.837Z,4.59
2018-12-10T11:52:10.915Z,4.54
2018-12-10T11:53:18.961Z,4.62
2018-12-10T11:54:27.028Z,4.60
2018-12-10T11:55:35.057Z,4.72
2018-12-10T11:56:43.159Z,4.65
2018-12-10T11:57:51.208Z,4.62
2018-12-10T11:58:59.252Z,4.54
2018-12-10T12:00:07.314Z,4.58
2018-12-10T12:01:15.356Z,4.59
2018-12-10T12:02:29.679Z,4.66
2018-12-10T12:03:31.492Z,4.67
2018-12-10T12:04:39.568Z,4.70
2018-12-10T12:05:47.630Z,4.73
2018-12-10T12:06:55.707Z,4.80
2018-12-10T12:08:03.733Z,4.89
2018-12-10T12:09:11.811Z,4.92
2018-12-10T12:10:19.844Z,4.99
2018-12-10T12:11:27.906Z,5.09
2018-12-10T12:12:35.956Z,5.10
2018-12-10T12:13:44.529Z,5.06
2018-12-10T12:14:52.084Z,5.17
2018-12-10T12:16:00.141Z,5.21
2018-12-10T12:17:08.214Z,5.17
2018-12-10T12:18:16.269Z,5.21
2018-12-10T12:19:24.335Z,5.28
2018-12-10T12:20:32.412Z,5.24
2018-12-10T12:21:40.455Z,5.21
2018-12-10T12:22:48.500Z,5.20
2018-12-10T12:23:56.561Z,5.06
2018-12-10T12:25:04.604Z,5.03
2018-12-10T12:26:12.683Z,5.00
2018-12-10T12:27:20.733Z,5.00
2018-12-10T12:28:28.796Z,4.92
2018-12-10T12:29:36.848Z,4.94
2018-12-10T12:30:44.926Z,4.96
2018-12-10T12:31:53.010Z,4.94
2018-12-10T12:33:01.022Z,4.99
2018-12-10T12:34:09.098Z,5.06
2018-12-10T12:35:17.160Z,5.04
2018-12-10T12:36:25.209Z,5.12
2018-12-10T12:37:33.273Z,5.12
2018-12-10T12:38:41.328Z,5.07
2018-12-10T12:39:49.477Z,5.07
2018-12-10T12:40:57.456Z,5.06
2018-12-10T12:42:05.500Z,5.06
2018-12-10T12:43:16.064Z,5.09
2018-12-10T12:44:21.628Z,5.07
2018-12-10T12:45:29.683Z,5.13
2018-12-10T12:46:37.739Z,5.18
2018-12-10T12:47:45.791Z,5.20
2018-12-10T12:48:53.868Z,5.25
2018-12-10T12:50:01.939Z,5.24
2018-12-10T12:51:09.959Z,5.20
2018-12-10T12:52:18.120Z,5.13
2018-12-10T12:53:26.099Z,5.10
2018-12-10T12:54:34.148Z,5.09
2018-12-10T12:55:42.224Z,5.04
2018-12-10T12:56:50.302Z,5.00
2018-12-10T12:57:58.331Z,4.94
2018-12-10T12:59:06.405Z,5.00
2018-12-10T13:00:14.451Z,5.02
2018-12-10T13:01:22.545Z,5.09
2018-12-10T13:02:30.575Z,5.09
2018-12-10T13:03:38.634Z,5.18
2018-12-10T13:04:46.709Z,5.20
2018-12-10T13:05:54.743Z,5.18
2018-12-10T13:07:02.821Z,5.22
2018-12-10T13:08:10.903Z,5.25
2018-12-10T13:09:21.835Z,5.22
2018-12-10T13:10:26.998Z,5.31
2018-12-10T13:11:37.056Z,5.30
2018-12-10T13:12:43.111Z,5.38
2018-12-10T13:13:51.168Z,5.30
2018-12-10T13:14:59.251Z,5.33
2018-12-10T13:16:07.259Z,5.30
2018-12-10T13:17:15.399Z,5.25
2018-12-10T13:18:23.420Z,5.31
2018-12-10T13:19:31.469Z,5.38
2018-12-10T13:20:39.541Z,5.31
2018-12-10T13:21:47.596Z,5.39
2018-12-10T13:22:55.638Z,5.39
2018-12-10T13:24:03.710Z,5.40
2018-12-10T13:25:11.756Z,5.57
2018-12-10T13:26:19.815Z,5.60
2018-12-10T13:27:27.898Z,5.75
2018-12-10T13:28:35.954Z,5.74
2018-12-10T13:29:44.004Z,5.81
2018-12-10T13:30:52.062Z,5.75
2018-12-10T13:32:00.117Z,5.83
2018-12-10T13:33:08.199Z,5.96
2018-12-10T13:34:16.242Z,5.90
2018-12-10T13:35:24.297Z,5.90
2018-12-10T13:36:32.374Z,5.90
2018-12-10T13:37:40.434Z,5.90
2018-12-10T13:38:48.465Z,5.91
2018-12-10T13:39:56.541Z,5.76
2018-12-10T13:41:04.607Z,5.78
2018-12-10T13:42:12.671Z,5.81
2018-12-10T13:43:20.732Z,5.82
2018-12-10T13:44:28.795Z,5.76
2018-12-10T13:45:36.840Z,5.75
2018-12-10T13:46:44.893Z,5.82
2018-12-10T13:47:52.955Z,5.76
2018-12-10T13:49:01.010Z,5.79
2018-12-10T13:50:09.085Z,5.79
2018-12-10T13:51:17.139Z,5.72
2018-12-10T13:52:25.198Z,5.72
2018-12-10T13:53:33.261Z,5.74
2018-12-10T13:54:41.316Z,5.60
2018-12-10T13:55:49.385Z,5.67
2018-12-10T13:56:57.458Z,5.60
2018-12-10T13:58:05.512Z,5.72
2018-12-10T13:59:13.566Z,5.64
2018-12-10T14:00:21.607Z,5.71
2018-12-10T14:01:29.693Z,5.75
2018-12-10T14:02:37.736Z,5.71
2018-12-10T14:03:45.772Z,5.79
2018-12-10T14:04:53.836Z,5.74
2018-12-10T14:06:01.921Z,5.76
2018-12-10T14:07:10.051Z,5.67
2018-12-10T14:08:18.032Z,5.65
2018-12-10T14:09:26.091Z,5.71
2018-12-10T14:10:34.120Z,5.63
2018-12-10T14:11:42.245Z,5.57
2018-12-10T14:12:50.272Z,5.61
2018-12-10T14:13:58.325Z,5.61
2018-12-10T14:15:06.403Z,5.63
2018-12-10T14:16:14.430Z,5.60
2018-12-10T14:17:22.526Z,5.61
2018-12-10T14:18:30.568Z,5.58
2018-12-10T14:19:38.627Z,5.51
2018-12-10T14:20:46.705Z,5.49
2018-12-10T14:21:54.741Z,5.51
2018-12-10T14:23:02.798Z,5.53
2018-12-10T14:24:10.859Z,5.40
2018-12-10T14:25:18.914Z,5.35
2018-12-10T14:26:26.987Z,5.42
2018-12-10T14:27:35.036Z,5.28
2018-12-10T14:28:43.103Z,5.30
2018-12-10T14:29:51.158Z,5.28
2018-12-10T14:30:59.210Z,5.20
2018-12-10T14:32:07.276Z,5.22
2018-12-10T14:33:15.412Z,5.09
2018-12-10T14:34:23.415Z,5.10
2018-12-10T14:35:31.448Z,5.00
2018-12-10T14:36:39.515Z,4.89
2018-12-10T14:37:47.620Z,4.88
2018-12-10T14:38:55.635Z,4.78
2018-12-10T14:40:03.713Z,4.85
2018-12-10T14:41:11.757Z,4.80
2018-12-10T14:42:19.825Z,4.78
2018-12-10T14:43:27.862Z,4.82
2018-12-10T14:44:35.925Z,4.70
2018-12-10T14:45:44.009Z,4.67
2018-12-10T14:46:52.051Z,4.62
2018-12-10T14:48:00.107Z,4.59
2018-12-10T14:49:08.242Z,4.65
2018-12-10T14:50:16.218Z,4.65
2018-12-10T14:51:24.301Z,4.48
2018-12-10T14:52:32.342Z,4.44
2018-12-10T14:53:40.386Z,4.41
2018-12-10T14:54:48.445Z,4.37
2018-12-10T14:55:56.533Z,4.27
2018-12-10T14:57:04.591Z,4.18
2018-12-10T14:58:12.645Z,4.20
2018-12-10T14:59:20.699Z,4.18
2018-12-10T15:00:28.756Z,4.08
2018-12-10T15:01:36.801Z,4.09
2018-12-10T15:02:44.848Z,4.12
2018-12-10T15:03:52.997Z,4.15
2018-12-10T15:05:00.998Z,4.16
2018-12-10T15:06:09.057Z,4.09